This demonstration page uses our WeatherBlox Daily Observations layout. Learn more.

38.89511, -77.03637

Hourly Observations for October 23, 2015

Temp ( °F °C ) Dew Point ( °F °C ) Humidity (%) Winds ( mph kmh ) Pressure ( in mb ) Visibility ( mi km ) Precip ( " mm )
12:52 am 00:52 Cloudy 61 16.1 55 12.8 81 81 Calm 30.15 1021 10 16.0934 0 0
1:52 am 01:52 Cloudy 62 16.7 55 12.8 78 78 Calm 30.14 1021 10 16.0934 0 0
2:52 am 02:52 Partly Cloudy 60 15.6 55 12.8 84 84 S 3 6 30.14 1021 10 16.0934 0 0
3:52 am 03:52 Mostly Cloudy 59 15 56 13.3 90 90 S 3 6 30.14 1021 10 16.0934 0 0
4:52 am 04:52 Partly Cloudy 60 15.6 54 12.2 80 80 N 3 6 30.16 1021 10 16.0934 0 0
5:52 am 05:52 Mostly Cloudy 62 16.7 54 12.2 75 75 N 10 17 30.18 1022 10 16.0934 0 0
6:52 am 06:52 Mostly Cloudy 62 16.7 53 11.7 73 73 N 12 19 30.2 1023 10 16.0934 0 0
7:52 am 07:52 Partly Cloudy 61 16.1 52 11.1 72 72 NNE 9 15 30.22 1024 10 16.0934 0 0
8:52 am 08:52 Mostly Sunny 61 16.1 48 8.9 63 63 NNE 10 17 30.24 1024 10 16.0934 0 0
9:52 am 09:52 Mostly Sunny 63 17.2 47 8.3 56 56 NNE 14 22 30.26 1025 10 16.0934 0 0
10:52 am 10:52 Mostly Sunny 65 18.3 47 8.3 52 52 N 13 20 30.27 1025 10 16.0934 0 0
11:52 am 11:52 Mostly Sunny 67 19.4 45 7.2 45 45 N 12 19 30.26 1025 10 16.0934 0 0
12:52 pm 12:52 Mostly Sunny 68 20 42 5.6 39 39 N 7 11 30.24 1024 10 16.0934 0 0
1:52 pm 13:52 Mostly Sunny 69 20.6 41 5 36 36 NNW 9 15 30.22 1023 10 16.0934 0 0
2:52 pm 14:52 Sunny 70 21.1 40 4.4 34 34 N 10 17 30.2 1023 10 16.0934 0 0
3:52 pm 15:52 Mostly Sunny 70 21.1 38 3.3 31 31 NNE 9 15 30.2 1023 10 16.0934 0 0
4:52 pm 16:52 Mostly Sunny 68 20 38 3.3 33 33 NNE 10 17 30.2 1023 10 16.0934 0 0
5:52 pm 17:52 Mostly Sunny 65 18.3 38 3.3 37 37 N 12 19 30.22 1024 10 16.0934 0 0
6:52 pm 18:52 Mostly Clear 61 16.1 41 5 48 48 NNE 8 13 30.23 1024 10 16.0934 0 0
7:52 pm 19:52 Mostly Clear 62 16.7 39 3.9 43 43 NE 13 20 30.25 1024 10 16.0934 0 0
8:52 pm 20:52 Partly Cloudy 58 14.4 44 6.7 60 60 NE 7 11 30.27 1025 10 16.0934 0 0
9:52 pm 21:52 Partly Cloudy 56 13.3 44 6.7 65 65 Calm 30.29 1026 10 16.0934 0 0
10:52 pm 22:52 Partly Cloudy 55 12.8 40 4.4 57 57 NE 5 7 30.3 1026 10 16.0934 0 0
11:52 pm 23:52 Partly Cloudy 53 11.7 43 6.1 69 69 NE 5 7 30.3 1026 10 16.0934 0 0

Powered by AerisWeather